createdAt,value
2023-02-26T00:03:16.423Z,2.97
2023-02-26T00:08:24.833Z,2.80
2023-02-26T00:13:30.460Z,3.17
2023-02-26T00:18:36.118Z,3.17
2023-02-26T00:23:44.667Z,3.03
2023-02-26T00:28:50.675Z,5.97
2023-02-26T00:33:57.536Z,4.40
2023-02-26T00:39:14.565Z,2.60
2023-02-26T00:44:20.215Z,2.50
2023-02-26T00:49:32.164Z,2.70
2023-02-26T00:54:39.590Z,3.03
2023-02-26T00:59:44.461Z,2.77
2023-02-26T01:04:49.926Z,3.17
2023-02-26T01:09:58.234Z,3.30
2023-02-26T01:15:03.682Z,2.63
2023-02-26T01:20:15.756Z,2.80
2023-02-26T01:25:30.087Z,2.90
2023-02-26T01:30:35.729Z,2.63
2023-02-26T01:35:45.695Z,2.40
2023-02-26T01:41:26.174Z,3.33
2023-02-26T01:46:39.817Z,2.77
2023-02-26T01:51:48.398Z,2.73
2023-02-26T01:56:58.688Z,3.40
2023-02-26T02:02:15.080Z,3.40
2023-02-26T02:07:21.761Z,3.67
2023-02-26T02:12:37.361Z,3.60
2023-02-26T02:17:53.990Z,3.37
2023-02-26T02:23:15.750Z,3.73
2023-02-26T02:28:34.391Z,3.57
2023-02-26T02:33:48.522Z,3.00
2023-02-26T02:38:59.185Z,4.63
2023-02-26T02:44:07.876Z,5.27
2023-02-26T02:49:25.145Z,4.10
2023-02-26T02:54:37.577Z,7.43
2023-02-26T02:59:47.286Z,3.47
2023-02-26T03:04:55.419Z,5.97
2023-02-26T03:10:00.676Z,4.33
2023-02-26T03:15:06.275Z,3.60
2023-02-26T03:20:24.141Z,5.80
2023-02-26T03:25:32.442Z,4.07
2023-02-26T03:30:42.222Z,3.80
2023-02-26T03:35:58.266Z,4.50
2023-02-26T03:41:07.959Z,3.30
2023-02-26T03:46:18.856Z,3.30
2023-02-26T03:51:29.816Z,5.13
2023-02-26T03:56:52.575Z,3.23
2023-02-26T04:02:37.399Z,3.87
2023-02-26T04:07:53.027Z,4.33
2023-02-26T04:13:02.324Z,3.97
2023-02-26T04:18:07.825Z,2.77
2023-02-26T04:23:15.754Z,5.63
2023-02-26T04:28:22.488Z,3.43
2023-02-26T04:33:28.028Z,3.70
2023-02-26T04:38:36.098Z,7.17
2023-02-26T04:43:42.484Z,5.10
2023-02-26T04:49:02.542Z,3.43
2023-02-26T04:54:10.865Z,3.87
2023-02-26T04:59:16.245Z,3.83
2023-02-26T05:04:21.496Z,5.83
2023-02-26T05:09:33.860Z,3.50
2023-02-26T05:14:38.738Z,3.40
2023-02-26T05:19:43.718Z,4.53
2023-02-26T05:24:51.566Z,3.23
2023-02-26T05:29:56.531Z,3.37
2023-02-26T05:35:02.284Z,4.77
2023-02-26T05:40:12.697Z,5.43
2023-02-26T05:45:17.724Z,4.77
2023-02-26T05:50:22.881Z,6.40
2023-02-26T05:55:30.526Z,3.03
2023-02-26T06:00:35.445Z,3.27
2023-02-26T06:05:40.538Z,4.03
2023-02-26T06:10:48.082Z,4.37
2023-02-26T06:15:54.495Z,2.97
2023-02-26T06:20:59.739Z,3.97
2023-02-26T06:26:08.224Z,3.43
2023-02-26T06:31:13.147Z,3.83
2023-02-26T06:36:18.137Z,3.83
2023-02-26T06:41:25.993Z,3.00
2023-02-26T06:46:30.988Z,3.93
2023-02-26T06:51:37.742Z,3.97
2023-02-26T06:56:45.488Z,5.73
2023-02-26T07:01:51.534Z,4.77
2023-02-26T07:06:56.912Z,3.90
2023-02-26T07:12:04.427Z,5.93
2023-02-26T07:17:09.693Z,6.47
2023-02-26T07:22:15.103Z,6.37
2023-02-26T07:27:22.692Z,7.67
2023-02-26T07:32:27.627Z,4.97
2023-02-26T07:37:32.523Z,7.20
2023-02-26T07:42:40.038Z,3.93
2023-02-26T07:47:44.945Z,3.43
2023-02-26T07:52:52.510Z,4.30
2023-02-26T07:58:00.397Z,6.20
2023-02-26T08:03:05.312Z,3.23
2023-02-26T08:08:10.270Z,6.43
2023-02-26T08:13:18.042Z,3.37
2023-02-26T08:18:23.383Z,4.40
2023-02-26T08:23:29.033Z,8.10
2023-02-26T08:28:38.015Z,8.47
2023-02-26T08:33:43.578Z,3.07
2023-02-26T08:38:48.522Z,5.10
2023-02-26T08:43:58.301Z,6.77
2023-02-26T08:49:03.413Z,3.10
2023-02-26T08:54:09.114Z,4.03
2023-02-26T08:59:19.209Z,8.33
2023-02-26T09:04:24.169Z,3.20
2023-02-26T09:09:29.327Z,3.30
2023-02-26T09:14:36.861Z,3.63
2023-02-26T09:19:41.805Z,3.17
2023-02-26T09:24:46.775Z,3.00
2023-02-26T09:29:54.214Z,9.27
2023-02-26T09:34:59.210Z,4.90
2023-02-26T09:40:04.120Z,4.77
2023-02-26T09:45:20.751Z,6.80
2023-02-26T09:50:31.553Z,3.70
2023-02-26T09:55:43.719Z,5.60
2023-02-26T10:00:59.755Z,6.90
2023-02-26T10:06:20.238Z,6.83
2023-02-26T10:11:33.851Z,4.37
2023-02-26T10:16:50.173Z,3.73
2023-02-26T10:22:00.529Z,4.43
2023-02-26T10:27:12.350Z,3.87
2023-02-26T10:32:29.347Z,4.33
2023-02-26T10:37:47.059Z,3.43
2023-02-26T10:42:57.106Z,5.57
2023-02-26T10:48:17.814Z,2.37
2023-02-26T10:53:24.352Z,5.60
2023-02-26T10:58:29.897Z,2.37
2023-02-26T11:03:41.920Z,2.63
2023-02-26T11:08:49.344Z,2.47
2023-02-26T11:13:56.053Z,3.10
2023-02-26T11:19:04.851Z,2.83
2023-02-26T11:24:14.724Z,1.87
2023-02-26T11:29:23.484Z,1.93
2023-02-26T11:34:35.967Z,3.10
2023-02-26T11:39:42.125Z,2.10
2023-02-26T11:44:50.541Z,3.03
2023-02-26T11:50:04.707Z,4.10
2023-02-26T11:55:30.427Z,4.50
2023-02-26T12:00:40.503Z,7.53
2023-02-26T12:05:48.598Z,4.37
2023-02-26T12:11:07.270Z,3.13
2023-02-26T12:16:22.896Z,3.10
2023-02-26T12:21:49.088Z,4.93
2023-02-26T12:27:01.367Z,4.37
2023-02-26T12:32:29.609Z,3.53
2023-02-26T12:37:53.090Z,3.40
2023-02-26T12:43:04.977Z,3.63
2023-02-26T12:48:42.728Z,6.10
2023-02-26T12:54:06.805Z,3.33
2023-02-26T12:59:27.790Z,4.67
2023-02-26T13:04:45.905Z,2.40
2023-02-26T13:10:04.310Z,3.80
2023-02-26T13:15:28.540Z,3.03
2023-02-26T13:20:36.185Z,2.77
2023-02-26T13:25:51.149Z,4.10
2023-02-26T13:31:02.654Z,1.83
2023-02-26T13:36:11.589Z,3.97
2023-02-26T13:41:30.636Z,3.40
2023-02-26T13:46:50.890Z,1.60
2023-02-26T13:51:57.708Z,1.93
2023-02-26T13:57:37.046Z,3.30
2023-02-26T14:02:51.256Z,2.97
2023-02-26T14:08:11.171Z,2.97
2023-02-26T14:13:26.337Z,3.87
2023-02-26T14:18:38.180Z,4.00
2023-02-26T14:23:45.200Z,3.90
2023-02-26T14:29:10.399Z,4.13
2023-02-26T14:34:18.281Z,3.00
2023-02-26T14:39:34.931Z,2.83
2023-02-26T14:44:50.666Z,3.13
2023-02-26T14:50:00.527Z,1.60
2023-02-26T14:55:33.541Z,2.40
2023-02-26T15:00:49.739Z,2.30
2023-02-26T15:06:11.195Z,1.73
2023-02-26T15:11:42.137Z,4.53
2023-02-26T15:17:03.466Z,4.47
2023-02-26T15:22:26.033Z,2.30
2023-02-26T15:27:36.729Z,4.47
2023-02-26T15:32:49.428Z,5.57
2023-02-26T15:37:57.849Z,11.50
2023-02-26T15:43:04.968Z,7.80
2023-02-26T15:48:17.696Z,7.13
2023-02-26T15:53:30.488Z,4.40
2023-02-26T15:58:43.152Z,5.27
2023-02-26T16:03:53.647Z,5.63
2023-02-26T16:08:58.645Z,3.80
2023-02-26T16:14:07.698Z,5.23
2023-02-26T16:19:17.552Z,4.93
2023-02-26T16:24:27.116Z,4.00
2023-02-26T16:29:35.854Z,2.17
2023-02-26T16:34:52.741Z,3.83
2023-02-26T16:40:10.709Z,3.90
2023-02-26T16:45:25.822Z,4.83
2023-02-26T16:50:37.251Z,4.93
2023-02-26T16:55:43.041Z,1.87
2023-02-26T17:00:50.110Z,3.97
2023-02-26T17:06:03.423Z,3.17
2023-02-26T17:11:11.739Z,4.77
2023-02-26T17:16:22.047Z,4.20
2023-02-26T17:21:29.968Z,7.47
2023-02-26T17:26:35.078Z,12.73
2023-02-26T17:31:43.740Z,5.93
2023-02-26T17:36:52.006Z,5.10
2023-02-26T17:41:56.978Z,4.90
2023-02-26T17:47:02.331Z,10.07
2023-02-26T17:52:11.885Z,5.70
2023-02-26T17:57:20.368Z,8.03
2023-02-26T18:02:27.909Z,6.57
2023-02-26T18:07:36.408Z,4.37
2023-02-26T18:12:41.380Z,4.80
2023-02-26T18:17:47.818Z,6.17
2023-02-26T18:22:58.787Z,6.93
2023-02-26T18:28:05.240Z,6.17
2023-02-26T18:33:10.382Z,5.30
2023-02-26T18:38:19.799Z,4.97
2023-02-26T18:43:27.486Z,4.83
2023-02-26T18:48:32.911Z,6.80
2023-02-26T18:53:42.207Z,5.77
2023-02-26T18:58:48.023Z,8.10
2023-02-26T19:03:54.791Z,4.50
2023-02-26T19:09:04.565Z,8.00
2023-02-26T19:14:13.005Z,8.77
2023-02-26T19:19:21.421Z,7.17
2023-02-26T19:24:33.586Z,11.07
2023-02-26T19:29:42.407Z,12.57
2023-02-26T19:34:49.579Z,10.80
2023-02-26T19:40:03.201Z,7.63
2023-02-26T19:45:10.331Z,9.33
2023-02-26T19:50:19.372Z,7.83
2023-02-26T19:55:27.935Z,8.07
2023-02-26T20:00:33.587Z,9.90
2023-02-26T20:05:41.492Z,9.13
2023-02-26T20:10:53.765Z,7.30
2023-02-26T20:16:00.705Z,7.50
2023-02-26T20:21:09.340Z,8.03
2023-02-26T20:26:19.370Z,6.93
2023-02-26T20:31:25.522Z,7.57
2023-02-26T20:36:32.300Z,4.43
2023-02-26T20:41:41.138Z,3.87
2023-02-26T20:46:46.910Z,5.17
2023-02-26T20:51:52.854Z,4.13
2023-02-26T20:57:03.534Z,8.03
2023-02-26T21:02:08.902Z,4.97
2023-02-26T21:07:22.060Z,4.23
2023-02-26T21:12:31.842Z,5.77
2023-02-26T21:17:36.950Z,6.20
2023-02-26T21:22:44.370Z,4.03
2023-02-26T21:27:52.570Z,5.67
2023-02-26T21:32:57.930Z,4.50
2023-02-26T21:38:03.202Z,6.27
2023-02-26T21:43:10.879Z,4.53
2023-02-26T21:48:15.816Z,5.03
2023-02-26T21:53:20.909Z,7.50
2023-02-26T21:58:28.577Z,9.53
2023-02-26T22:03:34.109Z,10.57
2023-02-26T22:08:40.324Z,9.40
2023-02-26T22:13:48.783Z,12.50
2023-02-26T22:18:54.548Z,10.70
2023-02-26T22:24:03.189Z,10.13
2023-02-26T22:29:10.744Z,6.57
2023-02-26T22:34:15.757Z,7.67
2023-02-26T22:39:22.852Z,7.67
2023-02-26T22:44:33.510Z,8.57
2023-02-26T22:49:38.592Z,5.80
2023-02-26T22:54:46.549Z,7.73
2023-02-26T22:59:54.316Z,5.23
2023-02-26T23:04:59.274Z,7.20
2023-02-26T23:10:04.776Z,5.73
2023-02-26T23:15:14.252Z,6.83
2023-02-26T23:20:20.153Z,7.93
2023-02-26T23:25:26.790Z,9.23
2023-02-26T23:30:34.318Z,8.67
2023-02-26T23:35:40.107Z,5.87
2023-02-26T23:40:45.500Z,6.57
2023-02-26T23:45:53.460Z,4.93
2023-02-26T23:50:59.051Z,6.07
2023-02-26T23:56:03.996Z,6.13
